sensor_id;sensor_type;location;lat;lon;timestamp;P1;durP1;ratioP1;P2;durP2;ratioP2
18308;SDS011;9280;50.276;18.650;2022-07-29T00:00:51;18.50;;;5.80;;
18308;SDS011;9280;50.276;18.650;2022-07-29T00:03:38;12.83;;;5.97;;
18308;SDS011;9280;50.276;18.650;2022-07-29T00:06:24;12.67;;;5.93;;
18308;SDS011;9280;50.276;18.650;2022-07-29T00:09:10;12.57;;;5.63;;
18308;SDS011;9280;50.276;18.650;2022-07-29T00:11:59;16.87;;;5.90;;
18308;SDS011;9280;50.276;18.650;2022-07-29T00:14:46;11.73;;;5.90;;
18308;SDS011;9280;50.276;18.650;2022-07-29T00:17:32;19.53;;;5.27;;
18308;SDS011;9280;50.276;18.650;2022-07-29T00:20:18;10.70;;;5.40;;
18308;SDS011;9280;50.276;18.650;2022-07-29T00:23:05;25.20;;;5.80;;
18308;SDS011;9280;50.276;18.650;2022-07-29T00:25:51;19.10;;;5.83;;
18308;SDS011;9280;50.276;18.650;2022-07-29T00:28:39;11.10;;;5.47;;
18308;SDS011;9280;50.276;18.650;2022-07-29T00:31:25;14.30;;;5.17;;
18308;SDS011;9280;50.276;18.650;2022-07-29T00:34:11;10.03;;;5.03;;
18308;SDS011;9280;50.276;18.650;2022-07-29T00:37:11;13.57;;;5.30;;
18308;SDS011;9280;50.276;18.650;2022-07-29T00:39:57;11.33;;;5.90;;
18308;SDS011;9280;50.276;18.650;2022-07-29T00:42:43;16.07;;;6.97;;
18308;SDS011;9280;50.276;18.650;2022-07-29T00:45:31;9.60;;;5.10;;
18308;SDS011;9280;50.276;18.650;2022-07-29T00:48:17;10.83;;;5.77;;
18308;SDS011;9280;50.276;18.650;2022-07-29T00:51:03;16.40;;;7.80;;
18308;SDS011;9280;50.276;18.650;2022-07-29T00:53:51;14.73;;;6.63;;
18308;SDS011;9280;50.276;18.650;2022-07-29T00:56:38;14.17;;;6.60;;
18308;SDS011;9280;50.276;18.650;2022-07-29T00:59:24;14.83;;;6.03;;
18308;SDS011;9280;50.276;18.650;2022-07-29T01:02:13;14.50;;;5.73;;
18308;SDS011;9280;50.276;18.650;2022-07-29T01:04:59;14.80;;;4.90;;
18308;SDS011;9280;50.276;18.650;2022-07-29T01:07:46;9.03;;;5.10;;
18308;SDS011;9280;50.276;18.650;2022-07-29T01:10:34;9.10;;;5.20;;
18308;SDS011;9280;50.276;18.650;2022-07-29T01:13:24;8.83;;;4.90;;
18308;SDS011;9280;50.276;18.650;2022-07-29T01:16:13;14.17;;;4.93;;
18308;SDS011;9280;50.276;18.650;2022-07-29T01:19:06;11.77;;;4.83;;
18308;SDS011;9280;50.276;18.650;2022-07-29T01:21:58;9.40;;;4.53;;
18308;SDS011;9280;50.276;18.650;2022-07-29T01:31:45;10.87;;;5.10;;
18308;SDS011;9280;50.276;18.650;2022-07-29T01:34:41;7.50;;;4.33;;
18308;SDS011;9280;50.276;18.650;2022-07-29T01:37:36;10.17;;;4.00;;
18308;SDS011;9280;50.276;18.650;2022-07-29T01:40:31;8.67;;;4.40;;
18308;SDS011;9280;50.276;18.650;2022-07-29T01:43:23;12.53;;;4.00;;
18308;SDS011;9280;50.276;18.650;2022-07-29T01:46:17;6.10;;;3.70;;
18308;SDS011;9280;50.276;18.650;2022-07-29T01:49:13;8.20;;;3.70;;
18308;SDS011;9280;50.276;18.650;2022-07-29T01:52:02;6.27;;;3.40;;
18308;SDS011;9280;50.276;18.650;2022-07-29T01:54:52;9.40;;;3.63;;
18308;SDS011;9280;50.276;18.650;2022-07-29T01:57:42;12.30;;;3.53;;
18308;SDS011;9280;50.276;18.650;2022-07-29T02:00:31;6.67;;;3.67;;
18308;SDS011;9280;50.276;18.650;2022-07-29T02:03:19;7.43;;;3.43;;
18308;SDS011;9280;50.276;18.650;2022-07-29T02:06:08;7.93;;;3.40;;
18308;SDS011;9280;50.276;18.650;2022-07-29T02:08:56;4.70;;;3.23;;
18308;SDS011;9280;50.276;18.650;2022-07-29T02:11:46;10.83;;;3.67;;
18308;SDS011;9280;50.276;18.650;2022-07-29T02:14:36;7.40;;;3.60;;
18308;SDS011;9280;50.276;18.650;2022-07-29T02:17:25;8.83;;;3.73;;
18308;SDS011;9280;50.276;18.650;2022-07-29T02:20:14;20.40;;;3.97;;
18308;SDS011;9280;50.276;18.650;2022-07-29T02:23:03;4.57;;;2.97;;
18308;SDS011;9280;50.276;18.650;2022-07-29T02:25:51;5.53;;;3.07;;
18308;SDS011;9280;50.276;18.650;2022-07-29T02:28:40;5.93;;;2.90;;
18308;SDS011;9280;50.276;18.650;2022-07-29T02:31:28;9.17;;;3.10;;
18308;SDS011;9280;50.276;18.650;2022-07-29T02:34:17;9.30;;;3.23;;
18308;SDS011;9280;50.276;18.650;2022-07-29T02:37:05;4.93;;;3.07;;
18308;SDS011;9280;50.276;18.650;2022-07-29T02:39:56;9.37;;;2.83;;
18308;SDS011;9280;50.276;18.650;2022-07-29T02:42:43;3.83;;;2.60;;
18308;SDS011;9280;50.276;18.650;2022-07-29T02:45:31;4.87;;;2.60;;
18308;SDS011;9280;50.276;18.650;2022-07-29T02:48:18;5.57;;;2.70;;
18308;SDS011;9280;50.276;18.650;2022-07-29T02:51:11;5.87;;;2.67;;
18308;SDS011;9280;50.276;18.650;2022-07-29T02:54:04;3.37;;;2.27;;
18308;SDS011;9280;50.276;18.650;2022-07-29T02:56:55;5.43;;;2.40;;
18308;SDS011;9280;50.276;18.650;2022-07-29T02:59:45;3.83;;;2.50;;
18308;SDS011;9280;50.276;18.650;2022-07-29T03:02:36;8.83;;;2.53;;
18308;SDS011;9280;50.276;18.650;2022-07-29T03:05:25;4.27;;;2.67;;
18308;SDS011;9280;50.276;18.650;2022-07-29T03:08:12;4.90;;;2.63;;
18308;SDS011;9280;50.276;18.650;2022-07-29T03:11:00;4.57;;;2.70;;
18308;SDS011;9280;50.276;18.650;2022-07-29T03:13:49;6.73;;;3.07;;
18308;SDS011;9280;50.276;18.650;2022-07-29T03:16:35;8.30;;;3.33;;
18308;SDS011;9280;50.276;18.650;2022-07-29T03:19:22;5.90;;;3.30;;
18308;SDS011;9280;50.276;18.650;2022-07-29T03:22:08;7.60;;;3.17;;
18308;SDS011;9280;50.276;18.650;2022-07-29T03:24:56;17.27;;;3.40;;
18308;SDS011;9280;50.276;18.650;2022-07-29T03:27:42;6.50;;;2.97;;
18308;SDS011;9280;50.276;18.650;2022-07-29T03:30:30;7.27;;;3.03;;
18308;SDS011;9280;50.276;18.650;2022-07-29T03:33:16;5.40;;;2.30;;
18308;SDS011;9280;50.276;18.650;2022-07-29T03:36:02;3.90;;;2.37;;
18308;SDS011;9280;50.276;18.650;2022-07-29T03:38:49;4.90;;;2.40;;
18308;SDS011;9280;50.276;18.650;2022-07-29T03:41:35;4.47;;;3.10;;
18308;SDS011;9280;50.276;18.650;2022-07-29T03:44:25;4.83;;;3.50;;
18308;SDS011;9280;50.276;18.650;2022-07-29T03:47:14;5.70;;;3.57;;
18308;SDS011;9280;50.276;18.650;2022-07-29T03:50:04;5.83;;;3.00;;
18308;SDS011;9280;50.276;18.650;2022-07-29T03:52:53;7.77;;;3.00;;
18308;SDS011;9280;50.276;18.650;2022-07-29T03:55:41;9.20;;;3.10;;
18308;SDS011;9280;50.276;18.650;2022-07-29T03:58:28;6.03;;;3.33;;
18308;SDS011;9280;50.276;18.650;2022-07-29T04:01:17;3.03;;;2.27;;
18308;SDS011;9280;50.276;18.650;2022-07-29T04:04:05;6.10;;;3.13;;
18308;SDS011;9280;50.276;18.650;2022-07-29T04:06:52;5.87;;;3.03;;
18308;SDS011;9280;50.276;18.650;2022-07-29T04:09:38;8.27;;;3.53;;
18308;SDS011;9280;50.276;18.650;2022-07-29T04:12:23;6.57;;;3.07;;
18308;SDS011;9280;50.276;18.650;2022-07-29T04:15:10;13.40;;;5.50;;
18308;SDS011;9280;50.276;18.650;2022-07-29T04:17:56;6.70;;;3.03;;
18308;SDS011;9280;50.276;18.650;2022-07-29T04:20:44;7.17;;;2.87;;
18308;SDS011;9280;50.276;18.650;2022-07-29T04:23:30;5.73;;;2.97;;
18308;SDS011;9280;50.276;18.650;2022-07-29T04:26:18;5.53;;;2.43;;
18308;SDS011;9280;50.276;18.650;2022-07-29T04:29:05;3.73;;;2.30;;
18308;SDS011;9280;50.276;18.650;2022-07-29T04:31:51;3.33;;;2.40;;
18308;SDS011;9280;50.276;18.650;2022-07-29T04:34:37;6.03;;;2.60;;
18308;SDS011;9280;50.276;18.650;2022-07-29T04:37:25;4.20;;;2.33;;
18308;SDS011;9280;50.276;18.650;2022-07-29T04:40:11;3.97;;;2.40;;
18308;SDS011;9280;50.276;18.650;2022-07-29T04:42:57;7.47;;;3.13;;
18308;SDS011;9280;50.276;18.650;2022-07-29T04:45:43;7.30;;;2.70;;
18308;SDS011;9280;50.276;18.650;2022-07-29T04:48:29;5.33;;;2.80;;
18308;SDS011;9280;50.276;18.650;2022-07-29T04:51:15;11.50;;;2.43;;
18308;SDS011;9280;50.276;18.650;2022-07-29T04:54:03;7.83;;;2.73;;
18308;SDS011;9280;50.276;18.650;2022-07-29T04:56:50;5.17;;;2.50;;
18308;SDS011;9280;50.276;18.650;2022-07-29T04:59:36;6.83;;;2.67;;
18308;SDS011;9280;50.276;18.650;2022-07-29T05:02:22;10.97;;;2.93;;
18308;SDS011;9280;50.276;18.650;2022-07-29T05:05:08;7.53;;;2.70;;
18308;SDS011;9280;50.276;18.650;2022-07-29T05:07:54;5.50;;;2.77;;
18308;SDS011;9280;50.276;18.650;2022-07-29T05:10:42;9.17;;;3.07;;
18308;SDS011;9280;50.276;18.650;2022-07-29T05:13:29;7.27;;;3.20;;
18308;SDS011;9280;50.276;18.650;2022-07-29T05:16:15;11.00;;;3.07;;
18308;SDS011;9280;50.276;18.650;2022-07-29T05:19:01;7.47;;;3.10;;
18308;SDS011;9280;50.276;18.650;2022-07-29T05:21:48;10.40;;;3.33;;
18308;SDS011;9280;50.276;18.650;2022-07-29T05:24:34;10.93;;;3.60;;
18308;SDS011;9280;50.276;18.650;2022-07-29T05:27:21;10.23;;;4.30;;
18308;SDS011;9280;50.276;18.650;2022-07-29T05:30:08;9.33;;;3.40;;
18308;SDS011;9280;50.276;18.650;2022-07-29T05:32:54;5.93;;;3.20;;
18308;SDS011;9280;50.276;18.650;2022-07-29T05:35:40;8.57;;;3.27;;
18308;SDS011;9280;50.276;18.650;2022-07-29T05:38:26;11.53;;;3.80;;
18308;SDS011;9280;50.276;18.650;2022-07-29T05:41:13;8.07;;;4.30;;
18308;SDS011;9280;50.276;18.650;2022-07-29T05:44:00;6.40;;;3.07;;
18308;SDS011;9280;50.276;18.650;2022-07-29T05:46:46;10.73;;;3.47;;
18308;SDS011;9280;50.276;18.650;2022-07-29T05:49:32;8.37;;;3.13;;
18308;SDS011;9280;50.276;18.650;2022-07-29T05:52:19;7.47;;;3.57;;
18308;SDS011;9280;50.276;18.650;2022-07-29T05:55:05;7.90;;;3.07;;
18308;SDS011;9280;50.276;18.650;2022-07-29T05:57:52;16.73;;;3.30;;
18308;SDS011;9280;50.276;18.650;2022-07-29T06:00:39;9.73;;;3.20;;
18308;SDS011;9280;50.276;18.650;2022-07-29T06:03:25;6.83;;;3.03;;
18308;SDS011;9280;50.276;18.650;2022-07-29T06:06:12;12.43;;;3.50;;
18308;SDS011;9280;50.276;18.650;2022-07-29T06:08:58;5.33;;;3.20;;
18308;SDS011;9280;50.276;18.650;2022-07-29T06:11:44;7.23;;;3.27;;
18308;SDS011;9280;50.276;18.650;2022-07-29T06:14:30;7.90;;;2.97;;
18308;SDS011;9280;50.276;18.650;2022-07-29T06:17:18;9.10;;;3.53;;
18308;SDS011;9280;50.276;18.650;2022-07-29T06:20:04;6.87;;;3.30;;
18308;SDS011;9280;50.276;18.650;2022-07-29T06:22:51;10.47;;;3.23;;
18308;SDS011;9280;50.276;18.650;2022-07-29T06:25:39;5.57;;;3.10;;
18308;SDS011;9280;50.276;18.650;2022-07-29T06:28:25;6.43;;;3.03;;
18308;SDS011;9280;50.276;18.650;2022-07-29T06:31:12;10.60;;;3.63;;
18308;SDS011;9280;50.276;18.650;2022-07-29T06:33:59;11.20;;;3.17;;
18308;SDS011;9280;50.276;18.650;2022-07-29T06:36:45;7.47;;;3.60;;
18308;SDS011;9280;50.276;18.650;2022-07-29T06:39:33;5.13;;;3.17;;
18308;SDS011;9280;50.276;18.650;2022-07-29T06:42:20;8.87;;;3.93;;
18308;SDS011;9280;50.276;18.650;2022-07-29T06:45:06;15.10;;;5.83;;
18308;SDS011;9280;50.276;18.650;2022-07-29T06:47:52;9.27;;;5.00;;
18308;SDS011;9280;50.276;18.650;2022-07-29T06:50:40;6.47;;;3.77;;
18308;SDS011;9280;50.276;18.650;2022-07-29T06:53:26;9.63;;;3.50;;
18308;SDS011;9280;50.276;18.650;2022-07-29T06:56:13;10.00;;;4.30;;
18308;SDS011;9280;50.276;18.650;2022-07-29T06:58:58;8.80;;;3.70;;
18308;SDS011;9280;50.276;18.650;2022-07-29T07:01:44;6.03;;;3.10;;
18308;SDS011;9280;50.276;18.650;2022-07-29T07:04:31;11.40;;;4.47;;
18308;SDS011;9280;50.276;18.650;2022-07-29T07:07:19;10.70;;;3.73;;
18308;SDS011;9280;50.276;18.650;2022-07-29T07:10:05;11.23;;;3.43;;
18308;SDS011;9280;50.276;18.650;2022-07-29T07:12:52;9.30;;;3.47;;
18308;SDS011;9280;50.276;18.650;2022-07-29T07:15:38;7.07;;;3.67;;
18308;SDS011;9280;50.276;18.650;2022-07-29T07:18:25;6.23;;;3.63;;
18308;SDS011;9280;50.276;18.650;2022-07-29T07:21:11;9.03;;;4.23;;
18308;SDS011;9280;50.276;18.650;2022-07-29T07:23:59;8.47;;;3.77;;
18308;SDS011;9280;50.276;18.650;2022-07-29T07:26:45;4.60;;;3.40;;
18308;SDS011;9280;50.276;18.650;2022-07-29T07:29:32;11.13;;;3.53;;
18308;SDS011;9280;50.276;18.650;2022-07-29T07:32:18;10.37;;;3.53;;
18308;SDS011;9280;50.276;18.650;2022-07-29T07:35:05;12.60;;;3.60;;
18308;SDS011;9280;50.276;18.650;2022-07-29T07:37:52;6.93;;;3.70;;
18308;SDS011;9280;50.276;18.650;2022-07-29T07:40:40;8.80;;;3.80;;
18308;SDS011;9280;50.276;18.650;2022-07-29T07:43:27;12.63;;;4.13;;
18308;SDS011;9280;50.276;18.650;2022-07-29T07:46:13;8.53;;;4.00;;
18308;SDS011;9280;50.276;18.650;2022-07-29T07:49:00;5.77;;;3.27;;
18308;SDS011;9280;50.276;18.650;2022-07-29T07:51:46;12.57;;;3.53;;
18308;SDS011;9280;50.276;18.650;2022-07-29T07:54:33;8.53;;;3.20;;
18308;SDS011;9280;50.276;18.650;2022-07-29T07:57:21;10.67;;;3.70;;
18308;SDS011;9280;50.276;18.650;2022-07-29T08:00:08;8.50;;;3.43;;
18308;SDS011;9280;50.276;18.650;2022-07-29T08:02:56;5.20;;;3.40;;
18308;SDS011;9280;50.276;18.650;2022-07-29T08:05:42;7.20;;;3.90;;
18308;SDS011;9280;50.276;18.650;2022-07-29T08:08:28;8.50;;;3.57;;
18308;SDS011;9280;50.276;18.650;2022-07-29T08:11:15;5.73;;;3.80;;
18308;SDS011;9280;50.276;18.650;2022-07-29T08:14:02;6.53;;;3.60;;
18308;SDS011;9280;50.276;18.650;2022-07-29T08:16:48;5.73;;;3.33;;
18308;SDS011;9280;50.276;18.650;2022-07-29T08:19:34;4.23;;;3.50;;
18308;SDS011;9280;50.276;18.650;2022-07-29T08:22:21;4.00;;;3.43;;
18308;SDS011;9280;50.276;18.650;2022-07-29T08:25:07;11.27;;;4.17;;
18308;SDS011;9280;50.276;18.650;2022-07-29T08:27:53;7.27;;;3.33;;
18308;SDS011;9280;50.276;18.650;2022-07-29T08:30:41;5.87;;;3.73;;
18308;SDS011;9280;50.276;18.650;2022-07-29T08:33:27;6.70;;;3.90;;
18308;SDS011;9280;50.276;18.650;2022-07-29T08:36:13;6.83;;;3.60;;
18308;SDS011;9280;50.276;18.650;2022-07-29T08:39:00;6.87;;;3.50;;
18308;SDS011;9280;50.276;18.650;2022-07-29T08:41:47;10.77;;;3.90;;
18308;SDS011;9280;50.276;18.650;2022-07-29T08:44:35;3.80;;;3.40;;
18308;SDS011;9280;50.276;18.650;2022-07-29T08:47:23;6.20;;;3.70;;
18308;SDS011;9280;50.276;18.650;2022-07-29T08:50:10;5.50;;;3.80;;
18308;SDS011;9280;50.276;18.650;2022-07-29T08:52:57;7.37;;;4.00;;
18308;SDS011;9280;50.276;18.650;2022-07-29T08:55:45;8.20;;;3.70;;
18308;SDS011;9280;50.276;18.650;2022-07-29T08:58:33;8.20;;;4.10;;
18308;SDS011;9280;50.276;18.650;2022-07-29T09:01:23;6.07;;;3.80;;
18308;SDS011;9280;50.276;18.650;2022-07-29T09:04:13;6.20;;;3.50;;
18308;SDS011;9280;50.276;18.650;2022-07-29T09:07:02;9.23;;;4.30;;
18308;SDS011;9280;50.276;18.650;2022-07-29T09:09:49;6.47;;;4.10;;
18308;SDS011;9280;50.276;18.650;2022-07-29T09:12:36;7.63;;;4.00;;
18308;SDS011;9280;50.276;18.650;2022-07-29T09:15:22;9.03;;;5.17;;
18308;SDS011;9280;50.276;18.650;2022-07-29T09:18:09;6.33;;;4.23;;
18308;SDS011;9280;50.276;18.650;2022-07-29T09:20:57;5.73;;;4.00;;
18308;SDS011;9280;50.276;18.650;2022-07-29T09:24:01;17.50;;;6.27;;
18308;SDS011;9280;50.276;18.650;2022-07-29T09:26:49;6.43;;;4.07;;
18308;SDS011;9280;50.276;18.650;2022-07-29T09:29:35;5.40;;;3.97;;
18308;SDS011;9280;50.276;18.650;2022-07-29T09:32:22;7.90;;;4.80;;
18308;SDS011;9280;50.276;18.650;2022-07-29T09:35:16;10.70;;;4.80;;
18308;SDS011;9280;50.276;18.650;2022-07-29T09:38:11;6.23;;;5.00;;
18308;SDS011;9280;50.276;18.650;2022-07-29T09:40:58;6.63;;;4.23;;
18308;SDS011;9280;50.276;18.650;2022-07-29T09:43:52;6.97;;;4.33;;
18308;SDS011;9280;50.276;18.650;2022-07-29T09:46:40;5.03;;;4.50;;
18308;SDS011;9280;50.276;18.650;2022-07-29T09:49:50;5.20;;;3.97;;
18308;SDS011;9280;50.276;18.650;2022-07-29T09:52:45;7.83;;;4.40;;
18308;SDS011;9280;50.276;18.650;2022-07-29T09:55:40;11.00;;;3.80;;
18308;SDS011;9280;50.276;18.650;2022-07-29T09:58:32;9.30;;;4.50;;
18308;SDS011;9280;50.276;18.650;2022-07-29T10:01:26;5.23;;;4.17;;
18308;SDS011;9280;50.276;18.650;2022-07-29T10:04:12;5.20;;;4.57;;
18308;SDS011;9280;50.276;18.650;2022-07-29T10:06:59;8.00;;;4.33;;
18308;SDS011;9280;50.276;18.650;2022-07-29T10:09:49;7.47;;;4.10;;
18308;SDS011;9280;50.276;18.650;2022-07-29T10:12:49;5.80;;;3.67;;
18308;SDS011;9280;50.276;18.650;2022-07-29T10:15:39;4.30;;;3.67;;
18308;SDS011;9280;50.276;18.650;2022-07-29T10:18:27;7.90;;;3.97;;
18308;SDS011;9280;50.276;18.650;2022-07-29T10:21:15;7.73;;;4.20;;
18308;SDS011;9280;50.276;18.650;2022-07-29T10:24:01;5.50;;;3.77;;
18308;SDS011;9280;50.276;18.650;2022-07-29T10:26:49;6.90;;;4.63;;
18308;SDS011;9280;50.276;18.650;2022-07-29T10:29:36;7.73;;;3.83;;
18308;SDS011;9280;50.276;18.650;2022-07-29T10:32:26;4.83;;;3.57;;
18308;SDS011;9280;50.276;18.650;2022-07-29T10:35:21;5.37;;;3.80;;
18308;SDS011;9280;50.276;18.650;2022-07-29T10:38:28;10.43;;;4.77;;
18308;SDS011;9280;50.276;18.650;2022-07-29T10:41:47;13.60;;;4.70;;
18308;SDS011;9280;50.276;18.650;2022-07-29T10:44:52;9.40;;;3.90;;
18308;SDS011;9280;50.276;18.650;2022-07-29T10:47:39;6.13;;;4.00;;
18308;SDS011;9280;50.276;18.650;2022-07-29T10:50:27;4.27;;;3.87;;
18308;SDS011;9280;50.276;18.650;2022-07-29T10:53:13;7.53;;;4.37;;
18308;SDS011;9280;50.276;18.650;2022-07-29T10:55:59;7.40;;;3.70;;
18308;SDS011;9280;50.276;18.650;2022-07-29T10:58:45;6.10;;;3.87;;
18308;SDS011;9280;50.276;18.650;2022-07-29T11:05:28;7.13;;;4.23;;
18308;SDS011;9280;50.276;18.650;2022-07-29T11:08:24;4.70;;;4.10;;
18308;SDS011;9280;50.276;18.650;2022-07-29T11:20:51;7.27;;;4.37;;
18308;SDS011;9280;50.276;18.650;2022-07-29T11:23:38;8.73;;;3.90;;
18308;SDS011;9280;50.276;18.650;2022-07-29T11:26:26;9.13;;;4.50;;
18308;SDS011;9280;50.276;18.650;2022-07-29T11:29:16;6.83;;;4.30;;
18308;SDS011;9280;50.276;18.650;2022-07-29T11:32:10;9.40;;;6.20;;
18308;SDS011;9280;50.276;18.650;2022-07-29T11:35:13;26.53;;;17.37;;
18308;SDS011;9280;50.276;18.650;2022-07-29T11:41:21;20.03;;;10.70;;
18308;SDS011;9280;50.276;18.650;2022-07-29T11:44:08;7.60;;;4.73;;
18308;SDS011;9280;50.276;18.650;2022-07-29T11:46:54;11.80;;;8.33;;
18308;SDS011;9280;50.276;18.650;2022-07-29T11:49:40;7.80;;;5.90;;
18308;SDS011;9280;50.276;18.650;2022-07-29T11:52:33;5.83;;;4.43;;
18308;SDS011;9280;50.276;18.650;2022-07-29T11:55:21;13.43;;;5.97;;
18308;SDS011;9280;50.276;18.650;2022-07-29T11:58:08;14.80;;;8.60;;
18308;SDS011;9280;50.276;18.650;2022-07-29T12:00:54;20.80;;;9.00;;
18308;SDS011;9280;50.276;18.650;2022-07-29T12:03:42;14.00;;;7.93;;
18308;SDS011;9280;50.276;18.650;2022-07-29T12:06:28;5.43;;;4.37;;
18308;SDS011;9280;50.276;18.650;2022-07-29T12:09:15;12.47;;;8.57;;
18308;SDS011;9280;50.276;18.650;2022-07-29T12:12:03;7.43;;;3.90;;
18308;SDS011;9280;50.276;18.650;2022-07-29T12:14:49;6.83;;;4.13;;
18308;SDS011;9280;50.276;18.650;2022-07-29T12:17:35;13.00;;;3.87;;
18308;SDS011;9280;50.276;18.650;2022-07-29T12:20:23;9.03;;;4.00;;
18308;SDS011;9280;50.276;18.650;2022-07-29T12:23:11;7.93;;;3.83;;
18308;SDS011;9280;50.276;18.650;2022-07-29T12:25:59;12.43;;;4.20;;
18308;SDS011;9280;50.276;18.650;2022-07-29T12:28:44;6.33;;;3.47;;
18308;SDS011;9280;50.276;18.650;2022-07-29T12:31:30;9.37;;;4.10;;
18308;SDS011;9280;50.276;18.650;2022-07-29T12:34:16;6.53;;;3.83;;
18308;SDS011;9280;50.276;18.650;2022-07-29T12:37:03;5.17;;;3.80;;
18308;SDS011;9280;50.276;18.650;2022-07-29T12:39:53;6.33;;;3.50;;
18308;SDS011;9280;50.276;18.650;2022-07-29T12:42:41;6.97;;;4.10;;
18308;SDS011;9280;50.276;18.650;2022-07-29T12:45:28;9.83;;;3.90;;
18308;SDS011;9280;50.276;18.650;2022-07-29T12:48:15;6.73;;;3.70;;
18308;SDS011;9280;50.276;18.650;2022-07-29T12:51:02;8.80;;;3.77;;
18308;SDS011;9280;50.276;18.650;2022-07-29T12:54:02;9.60;;;4.07;;
18308;SDS011;9280;50.276;18.650;2022-07-29T12:56:57;7.93;;;4.80;;
18308;SDS011;9280;50.276;18.650;2022-07-29T12:59:46;12.93;;;4.53;;
18308;SDS011;9280;50.276;18.650;2022-07-29T13:02:54;7.80;;;3.77;;
18308;SDS011;9280;50.276;18.650;2022-07-29T13:05:41;6.57;;;3.37;;
18308;SDS011;9280;50.276;18.650;2022-07-29T13:08:28;6.07;;;3.60;;
18308;SDS011;9280;50.276;18.650;2022-07-29T13:11:27;5.07;;;3.60;;
18308;SDS011;9280;50.276;18.650;2022-07-29T13:14:14;7.43;;;3.20;;
18308;SDS011;9280;50.276;18.650;2022-07-29T13:17:17;6.73;;;3.83;;
18308;SDS011;9280;50.276;18.650;2022-07-29T13:20:05;5.83;;;3.10;;
18308;SDS011;9280;50.276;18.650;2022-07-29T13:22:53;9.40;;;3.50;;
18308;SDS011;9280;50.276;18.650;2022-07-29T13:25:39;7.47;;;3.87;;
18308;SDS011;9280;50.276;18.650;2022-07-29T13:28:25;6.23;;;3.40;;
18308;SDS011;9280;50.276;18.650;2022-07-29T13:31:11;8.17;;;3.50;;
18308;SDS011;9280;50.276;18.650;2022-07-29T13:33:59;9.07;;;3.87;;
18308;SDS011;9280;50.276;18.650;2022-07-29T13:36:45;7.03;;;3.27;;
18308;SDS011;9280;50.276;18.650;2022-07-29T13:39:31;5.77;;;3.50;;
18308;SDS011;9280;50.276;18.650;2022-07-29T13:42:17;10.07;;;3.50;;
18308;SDS011;9280;50.276;18.650;2022-07-29T13:45:04;19.03;;;3.97;;
18308;SDS011;9280;50.276;18.650;2022-07-29T13:47:51;11.90;;;3.47;;
18308;SDS011;9280;50.276;18.650;2022-07-29T13:50:39;8.43;;;3.23;;
18308;SDS011;9280;50.276;18.650;2022-07-29T13:53:25;8.20;;;3.17;;
18308;SDS011;9280;50.276;18.650;2022-07-29T13:56:12;4.60;;;2.87;;
18308;SDS011;9280;50.276;18.650;2022-07-29T13:58:58;3.47;;;2.90;;
18308;SDS011;9280;50.276;18.650;2022-07-29T14:01:44;6.50;;;3.17;;
18308;SDS011;9280;50.276;18.650;2022-07-29T14:04:30;10.35;;;3.10;;
18308;SDS011;9280;50.276;18.650;2022-07-29T14:07:18;12.85;;;3.10;;
18308;SDS011;9280;50.276;18.650;2022-07-29T14:10:04;5.28;;;2.63;;
18308;SDS011;9280;50.276;18.650;2022-07-29T14:12:51;4.45;;;3.03;;
18308;SDS011;9280;50.276;18.650;2022-07-29T14:15:37;8.35;;;3.05;;
18308;SDS011;9280;50.276;18.650;2022-07-29T14:18:23;12.68;;;3.08;;
18308;SDS011;9280;50.276;18.650;2022-07-29T14:21:09;6.63;;;3.38;;
18308;SDS011;9280;50.276;18.650;2022-07-29T14:24:00;5.60;;;3.45;;
18308;SDS011;9280;50.276;18.650;2022-07-29T14:26:46;9.13;;;3.17;;
18308;SDS011;9280;50.276;18.650;2022-07-29T14:29:32;18.88;;;4.68;;
18308;SDS011;9280;50.276;18.650;2022-07-29T14:32:19;10.63;;;3.58;;
18308;SDS011;9280;50.276;18.650;2022-07-29T14:35:08;8.45;;;3.42;;
18308;SDS011;9280;50.276;18.650;2022-07-29T14:37:54;14.75;;;3.45;;
18308;SDS011;9280;50.276;18.650;2022-07-29T14:40:42;15.25;;;4.20;;
18308;SDS011;9280;50.276;18.650;2022-07-29T14:43:30;11.47;;;3.70;;
18308;SDS011;9280;50.276;18.650;2022-07-29T14:46:16;10.33;;;4.63;;
18308;SDS011;9280;50.276;18.650;2022-07-29T14:49:02;5.53;;;3.67;;
18308;SDS011;9280;50.276;18.650;2022-07-29T14:51:47;8.73;;;4.00;;
18308;SDS011;9280;50.276;18.650;2022-07-29T14:54:33;21.53;;;4.50;;
18308;SDS011;9280;50.276;18.650;2022-07-29T14:57:21;15.97;;;3.97;;
18308;SDS011;9280;50.276;18.650;2022-07-29T15:00:07;15.17;;;4.97;;
18308;SDS011;9280;50.276;18.650;2022-07-29T15:02:55;6.97;;;3.70;;
18308;SDS011;9280;50.276;18.650;2022-07-29T15:05:41;8.87;;;4.07;;
18308;SDS011;9280;50.276;18.650;2022-07-29T15:08:27;13.60;;;4.17;;
18308;SDS011;9280;50.276;18.650;2022-07-29T15:11:14;14.23;;;4.90;;
18308;SDS011;9280;50.276;18.650;2022-07-29T15:14:02;12.43;;;4.60;;
18308;SDS011;9280;50.276;18.650;2022-07-29T15:16:48;10.27;;;3.87;;
18308;SDS011;9280;50.276;18.650;2022-07-29T15:19:34;9.50;;;3.87;;
18308;SDS011;9280;50.276;18.650;2022-07-29T15:22:20;11.40;;;4.20;;
18308;SDS011;9280;50.276;18.650;2022-07-29T15:25:06;13.73;;;4.20;;
18308;SDS011;9280;50.276;18.650;2022-07-29T15:27:53;16.80;;;4.53;;
18308;SDS011;9280;50.276;18.650;2022-07-29T15:30:40;13.40;;;4.10;;
18308;SDS011;9280;50.276;18.650;2022-07-29T15:33:26;4.83;;;3.30;;
18308;SDS011;9280;50.276;18.650;2022-07-29T15:36:13;9.70;;;3.77;;
18308;SDS011;9280;50.276;18.650;2022-07-29T15:38:59;9.27;;;4.13;;
18308;SDS011;9280;50.276;18.650;2022-07-29T15:41:45;10.67;;;3.90;;
18308;SDS011;9280;50.276;18.650;2022-07-29T15:44:31;39.73;;;5.87;;
18308;SDS011;9280;50.276;18.650;2022-07-29T15:47:20;20.17;;;5.17;;
18308;SDS011;9280;50.276;18.650;2022-07-29T15:50:06;9.47;;;4.87;;
18308;SDS011;9280;50.276;18.650;2022-07-29T15:52:58;16.67;;;5.17;;
18308;SDS011;9280;50.276;18.650;2022-07-29T15:55:47;15.07;;;4.83;;
18308;SDS011;9280;50.276;18.650;2022-07-29T15:58:33;6.47;;;4.10;;
18308;SDS011;9280;50.276;18.650;2022-07-29T16:01:19;35.80;;;6.63;;
18308;SDS011;9280;50.276;18.650;2022-07-29T16:04:07;18.03;;;5.13;;
18308;SDS011;9280;50.276;18.650;2022-07-29T16:06:54;10.33;;;4.33;;
18308;SDS011;9280;50.276;18.650;2022-07-29T16:09:43;9.30;;;4.77;;
18308;SDS011;9280;50.276;18.650;2022-07-29T16:12:29;8.87;;;4.60;;
18308;SDS011;9280;50.276;18.650;2022-07-29T16:15:15;9.57;;;4.20;;
18308;SDS011;9280;50.276;18.650;2022-07-29T16:18:01;5.07;;;4.00;;
18308;SDS011;9280;50.276;18.650;2022-07-29T16:20:49;13.67;;;4.43;;
18308;SDS011;9280;50.276;18.650;2022-07-29T16:23:36;10.87;;;4.33;;
18308;SDS011;9280;50.276;18.650;2022-07-29T16:26:22;9.17;;;4.97;;
18308;SDS011;9280;50.276;18.650;2022-07-29T16:29:08;13.43;;;5.10;;
18308;SDS011;9280;50.276;18.650;2022-07-29T16:31:54;8.20;;;5.03;;
18308;SDS011;9280;50.276;18.650;2022-07-29T16:34:40;7.50;;;4.83;;
18308;SDS011;9280;50.276;18.650;2022-07-29T16:37:28;12.03;;;5.20;;
18308;SDS011;9280;50.276;18.650;2022-07-29T16:40:18;7.73;;;5.07;;
18308;SDS011;9280;50.276;18.650;2022-07-29T16:43:04;11.40;;;5.87;;
18308;SDS011;9280;50.276;18.650;2022-07-29T16:45:50;10.37;;;5.73;;
18308;SDS011;9280;50.276;18.650;2022-07-29T16:48:36;10.97;;;5.77;;
18308;SDS011;9280;50.276;18.650;2022-07-29T16:51:22;11.40;;;6.23;;
18308;SDS011;9280;50.276;18.650;2022-07-29T16:54:10;10.27;;;6.10;;
18308;SDS011;9280;50.276;18.650;2022-07-29T16:56:56;18.97;;;6.23;;
18308;SDS011;9280;50.276;18.650;2022-07-29T16:59:44;15.17;;;5.60;;
18308;SDS011;9280;50.276;18.650;2022-07-29T17:02:32;10.00;;;6.20;;
18308;SDS011;9280;50.276;18.650;2022-07-29T17:05:18;10.83;;;5.83;;
18308;SDS011;9280;50.276;18.650;2022-07-29T17:08:04;14.73;;;6.40;;
18308;SDS011;9280;50.276;18.650;2022-07-29T17:10:51;16.70;;;6.77;;